Loma, Montana
Current Conditions -  °F | °C
As of 10:56 PM on Sunday 21 Dec 2014 (Local Time) from KGFA Reporting Station
Clear Clear  
Wind Chill: 29°   Ceiling: Unl
Heat Index: 37°   Visibility: 10mi
Dew Point: 22°   Wind: 12mph
Humidity: 55%   Direction: 260°W
Pressure: 29.72"   Gusts: NA
Location:  47.93°N, 110.49°W
Report Text: KGFA 220556Z AUTO 26010KT 10SM CLR 03/M06 A2972 RMK AO2 SLP085 T00261056 10062 20000
Loading
Personal Weather Stations






























Interactive Weather Map New forecast layout! Learn more

10-Day Weather Forecast

Advertisements
Track Severe Weather on mobile